createdAt,value
2023-03-12T00:01:34.580Z,84.19
2023-03-12T00:04:02.839Z,84.26
2023-03-12T00:06:31.328Z,84.05
2023-03-12T00:09:02.313Z,83.86
2023-03-12T00:11:31.456Z,83.99
2023-03-12T00:14:02.182Z,84.05
2023-03-12T00:16:30.465Z,83.29
2023-03-12T00:18:58.458Z,83.29
2023-03-12T00:21:26.662Z,83.24
2023-03-12T00:23:54.638Z,82.85
2023-03-12T00:26:22.736Z,83.13
2023-03-12T00:38:14.113Z,83.87
2023-03-12T00:40:42.140Z,84.23
2023-03-12T00:43:10.110Z,84.13
2023-03-12T00:45:38.108Z,84.05
2023-03-12T00:48:06.697Z,83.89
2023-03-12T00:50:34.879Z,83.62
2023-03-12T00:53:02.904Z,83.55
2023-03-12T00:55:30.858Z,83.44
2023-03-12T00:57:58.886Z,83.15
2023-03-12T01:00:27.430Z,82.78
2023-03-12T01:02:55.684Z,82.86
2023-03-12T01:05:25.441Z,82.73
2023-03-12T01:07:54.798Z,82.72
2023-03-12T01:10:23.267Z,82.55
2023-03-12T01:12:51.820Z,82.40
2023-03-12T01:15:19.860Z,82.27
2023-03-12T01:17:48.009Z,82.05
2023-03-12T01:20:16.458Z,82.09
2023-03-12T01:22:44.816Z,82.28
2023-03-12T01:25:13.088Z,82.31
2023-03-12T01:27:41.186Z,82.36
2023-03-12T01:30:10.370Z,82.40
2023-03-12T01:32:39.532Z,82.30
2023-03-12T01:35:08.500Z,82.09
2023-03-12T01:37:36.672Z,82.36
2023-03-12T01:40:05.162Z,82.28
2023-03-12T01:42:33.900Z,82.18
2023-03-12T01:45:03.095Z,82.40
2023-03-12T01:47:32.730Z,82.44
2023-03-12T01:50:03.557Z,82.21
2023-03-12T01:52:34.348Z,82.12
2023-03-12T01:55:03.940Z,81.63
2023-03-12T01:57:52.720Z,81.92
2023-03-12T02:00:24.148Z,81.77
2023-03-12T02:02:56.358Z,81.32
2023-03-12T02:05:34.301Z,81.60
2023-03-12T02:08:02.627Z,81.55
2023-03-12T02:10:32.244Z,81.75
2023-03-12T02:13:00.523Z,81.91
2023-03-12T02:15:29.095Z,82.09
2023-03-12T02:17:57.924Z,82.40
2023-03-12T02:20:57.012Z,82.63
2023-03-12T02:23:43.729Z,82.95
2023-03-12T02:26:12.762Z,82.86
2023-03-12T02:28:44.286Z,82.67
2023-03-12T02:31:18.461Z,82.52
2023-03-12T02:33:46.740Z,82.03
2023-03-12T02:40:45.337Z,82.18
2023-03-12T02:43:13.831Z,81.92
2023-03-12T02:45:43.908Z,81.93
2023-03-12T02:48:12.323Z,81.55
2023-03-12T02:50:43.266Z,81.69
2023-03-12T02:53:11.470Z,81.78
2023-03-12T02:55:43.652Z,81.93
2023-03-12T02:58:12.211Z,81.52
2023-03-12T03:00:40.421Z,81.38
2023-03-12T03:03:08.800Z,81.21
2023-03-12T03:05:37.347Z,80.96
2023-03-12T03:08:10.621Z,81.27
2023-03-12T03:10:38.674Z,81.40
2023-03-12T03:13:07.975Z,81.02
2023-03-12T03:15:36.815Z,80.98
2023-03-12T03:18:07.136Z,80.91
2023-03-12T03:20:36.001Z,80.86
2023-03-12T03:23:04.633Z,80.59
2023-03-12T03:25:34.253Z,80.20
2023-03-12T03:28:04.343Z,79.38
2023-03-12T03:30:33.548Z,79.35
2023-03-12T03:33:02.296Z,79.29
2023-03-12T03:35:34.491Z,78.82
2023-03-12T03:38:02.811Z,78.62
2023-03-12T03:40:30.911Z,78.51
2023-03-12T03:42:59.947Z,78.40
2023-03-12T03:45:28.208Z,78.35
2023-03-12T03:47:56.304Z,78.49
2023-03-12T03:50:24.454Z,78.17
2023-03-12T03:52:55.156Z,78.14
2023-03-12T03:55:24.505Z,78.06
2023-03-12T03:57:52.528Z,77.86
2023-03-12T04:00:22.032Z,77.72
2023-03-12T04:02:51.029Z,77.12
2023-03-12T04:05:20.895Z,76.74
2023-03-12T04:07:53.107Z,76.07
2023-03-12T04:10:23.644Z,75.87
2023-03-12T04:12:52.906Z,75.83
2023-03-12T04:15:23.513Z,75.30
2023-03-12T04:17:52.248Z,74.82
2023-03-12T04:20:21.041Z,74.68
2023-03-12T04:22:50.139Z,74.16
2023-03-12T04:25:19.103Z,73.81
2023-03-12T04:27:47.598Z,74.43
2023-03-12T04:30:16.155Z,74.98
2023-03-12T04:32:45.701Z,75.27
2023-03-12T04:35:19.912Z,75.79
2023-03-12T04:37:48.584Z,75.52
2023-03-12T04:40:19.098Z,75.81
2023-03-12T04:42:48.009Z,76.09
2023-03-12T04:45:16.869Z,76.10
2023-03-12T04:47:51.149Z,76.45
2023-03-12T04:50:19.460Z,76.88
2023-03-12T04:52:47.865Z,76.57
2023-03-12T04:55:16.370Z,76.23
2023-03-12T04:57:44.394Z,76.51
2023-03-12T05:00:13.753Z,76.48
2023-03-12T05:02:43.318Z,75.55
2023-03-12T05:05:11.835Z,75.43
2023-03-12T05:08:00.793Z,75.19
2023-03-12T05:10:31.608Z,75.26
2023-03-12T05:13:00.884Z,75.15
2023-03-12T05:15:29.218Z,75.55
2023-03-12T05:17:58.917Z,76.04
2023-03-12T05:20:27.062Z,76.64
2023-03-12T05:22:55.465Z,76.98
2023-03-12T05:25:26.338Z,77.23
2023-03-12T05:27:56.208Z,77.43
2023-03-12T05:30:25.826Z,76.91
2023-03-12T05:32:54.063Z,76.96
2023-03-12T05:35:22.205Z,77.08
2023-03-12T05:37:54.469Z,76.79
2023-03-12T05:40:23.126Z,76.54
2023-03-12T05:42:51.804Z,76.55
2023-03-12T05:45:20.054Z,76.74
2023-03-12T05:47:49.719Z,76.93
2023-03-12T05:50:19.368Z,76.85
2023-03-12T05:52:48.191Z,77.14
2023-03-12T05:55:17.808Z,77.20
2023-03-12T05:57:47.608Z,76.87
2023-03-12T06:00:16.806Z,76.86
2023-03-12T06:02:50.725Z,76.78
2023-03-12T06:05:19.094Z,76.85
2023-03-12T06:07:52.338Z,76.87
2023-03-12T06:10:20.931Z,76.30
2023-03-12T06:12:48.982Z,76.25
2023-03-12T06:15:20.179Z,75.96
2023-03-12T06:17:50.330Z,76.01
2023-03-12T06:20:19.190Z,75.82
2023-03-12T06:22:47.291Z,75.60
2023-03-12T06:25:16.085Z,75.33
2023-03-12T06:27:44.568Z,75.78
2023-03-12T06:30:13.522Z,76.09
2023-03-12T06:32:41.609Z,76.05
2023-03-12T06:35:10.127Z,75.84
2023-03-12T06:37:38.172Z,76.09
2023-03-12T06:40:10.114Z,76.41
2023-03-12T06:42:40.367Z,77.19
2023-03-12T06:45:09.053Z,77.75
2023-03-12T06:47:37.894Z,77.88
2023-03-12T06:50:06.263Z,78.50
2023-03-12T06:52:37.793Z,79.05
2023-03-12T06:55:06.545Z,79.36
2023-03-12T06:57:34.660Z,79.89
2023-03-12T07:00:04.907Z,80.47
2023-03-12T07:02:33.610Z,80.81
2023-03-12T07:05:06.988Z,80.81
2023-03-12T07:07:35.525Z,80.83
2023-03-12T07:10:06.607Z,80.92
2023-03-12T07:12:35.002Z,80.21
2023-03-12T07:15:03.217Z,79.84
2023-03-12T07:17:31.877Z,79.52
2023-03-12T07:20:00.134Z,79.84
2023-03-12T07:22:28.388Z,80.33
2023-03-12T07:24:56.601Z,80.23
2023-03-12T07:27:24.862Z,80.15
2023-03-12T07:29:52.899Z,79.65
2023-03-12T07:32:21.068Z,79.68
2023-03-12T07:34:49.217Z,80.12
2023-03-12T07:37:20.238Z,80.34
2023-03-12T07:39:52.469Z,80.51
2023-03-12T07:42:23.794Z,80.36
2023-03-12T07:44:51.992Z,80.03
2023-03-12T07:47:24.206Z,79.55
2023-03-12T07:49:54.248Z,80.09
2023-03-12T07:52:23.733Z,80.49
2023-03-12T07:54:53.010Z,80.07
2023-03-12T07:57:21.650Z,80.05
2023-03-12T07:59:50.078Z,79.97
2023-03-12T08:02:18.739Z,80.32
2023-03-12T08:04:47.109Z,80.14
2023-03-12T08:07:15.344Z,80.31
2023-03-12T08:09:44.250Z,80.47
2023-03-12T08:12:15.805Z,80.12
2023-03-12T08:14:44.070Z,79.54
2023-03-12T08:17:13.022Z,79.41
2023-03-12T08:19:42.598Z,79.72
2023-03-12T08:22:10.842Z,80.07
2023-03-12T08:24:38.824Z,80.21
2023-03-12T08:27:08.172Z,80.04
2023-03-12T08:29:36.461Z,80.18
2023-03-12T08:32:05.855Z,80.25
2023-03-12T08:34:36.929Z,80.44
2023-03-12T08:37:05.965Z,80.66
2023-03-12T08:39:34.297Z,80.58
2023-03-12T08:42:02.468Z,80.41
2023-03-12T08:44:30.759Z,80.54
2023-03-12T08:46:58.889Z,80.82
2023-03-12T08:49:27.039Z,80.97
2023-03-12T08:51:55.342Z,81.20
2023-03-12T08:54:23.407Z,81.41
2023-03-12T08:56:52.729Z,81.14
2023-03-12T08:59:23.493Z,80.54
2023-03-12T09:01:51.886Z,80.57
2023-03-12T09:04:20.068Z,80.32
2023-03-12T09:06:48.493Z,80.08
2023-03-12T09:09:16.550Z,80.07
2023-03-12T09:11:47.429Z,79.77
2023-03-12T09:17:09.235Z,79.62
2023-03-12T09:19:37.405Z,79.75
2023-03-12T09:22:05.580Z,79.59
2023-03-12T09:24:35.404Z,79.65
2023-03-12T09:27:04.600Z,79.03
2023-03-12T09:29:34.868Z,79.15
2023-03-12T09:32:05.807Z,79.18
2023-03-12T09:34:35.057Z,78.81
2023-03-12T09:37:03.082Z,78.46
2023-03-12T09:39:32.210Z,78.23
2023-03-12T09:42:00.259Z,77.95
2023-03-12T09:44:41.452Z,77.85
2023-03-12T09:47:26.231Z,77.84
2023-03-12T09:49:57.200Z,77.37
2023-03-12T09:52:43.668Z,76.67
2023-03-12T09:55:16.901Z,76.46
2023-03-12T09:57:45.033Z,75.87
2023-03-12T10:00:17.246Z,76.01
2023-03-12T10:03:10.320Z,76.05
2023-03-12T10:06:24.685Z,75.25
2023-03-12T10:08:56.676Z,75.38
2023-03-12T10:11:32.332Z,75.28
2023-03-12T10:14:05.038Z,75.25
2023-03-12T10:16:43.489Z,75.88
2023-03-12T10:19:29.514Z,76.04
2023-03-12T10:22:00.665Z,75.99
2023-03-12T10:24:55.593Z,75.24
2023-03-12T10:27:25.888Z,74.81
2023-03-12T10:29:54.554Z,74.48
2023-03-12T10:32:37.628Z,74.18
2023-03-12T10:35:17.248Z,73.97
2023-03-12T10:38:04.996Z,74.28
2023-03-12T10:40:34.645Z,74.52
2023-03-12T10:43:04.602Z,74.11
2023-03-12T10:45:36.597Z,73.90
2023-03-12T10:48:11.908Z,73.34
2023-03-12T10:50:42.407Z,72.47
2023-03-12T10:53:13.466Z,71.72
2023-03-12T10:55:42.430Z,71.99
2023-03-12T10:58:22.854Z,71.40
2023-03-12T11:00:58.270Z,71.66
2023-03-12T11:03:26.329Z,70.26
2023-03-12T11:05:55.777Z,70.04
2023-03-12T11:08:31.092Z,69.37
2023-03-12T11:11:00.240Z,70.08
2023-03-12T11:13:38.093Z,70.56
2023-03-12T11:16:16.161Z,69.53
2023-03-12T11:19:05.220Z,68.88
2023-03-12T11:21:40.333Z,68.96
2023-03-12T11:24:10.986Z,69.87
2023-03-12T11:26:52.169Z,70.09
2023-03-12T11:29:40.229Z,69.59
2023-03-12T11:32:35.495Z,69.32
2023-03-12T11:35:12.450Z,68.16
2023-03-12T11:37:56.740Z,66.93
2023-03-12T11:40:28.016Z,65.70
2023-03-12T11:43:05.163Z,64.61
2023-03-12T11:45:43.889Z,64.82
2023-03-12T11:48:33.954Z,64.72
2023-03-12T11:51:08.531Z,64.85
2023-03-12T11:53:37.303Z,64.60
2023-03-12T11:56:12.456Z,64.28
2023-03-12T11:59:16.186Z,64.22
2023-03-12T12:01:50.316Z,64.78
2023-03-12T12:04:50.787Z,64.94
2023-03-12T12:07:23.181Z,63.70
2023-03-12T12:10:01.694Z,62.76
2023-03-12T12:12:36.396Z,63.76
2023-03-12T12:15:25.815Z,63.94
2023-03-12T12:18:06.244Z,64.03
2023-03-12T12:20:39.974Z,63.83
2023-03-12T12:23:20.428Z,62.88
2023-03-12T12:26:01.192Z,63.19
2023-03-12T12:29:00.301Z,62.56
2023-03-12T12:31:51.748Z,61.87
2023-03-12T12:34:59.001Z,59.23
2023-03-12T12:37:42.874Z,59.91
2023-03-12T12:40:21.376Z,58.62
2023-03-12T12:43:35.999Z,58.77
2023-03-12T12:46:09.775Z,58.47
2023-03-12T12:49:05.239Z,58.25
2023-03-12T12:51:40.518Z,58.69
2023-03-12T12:54:16.850Z,58.21
2023-03-12T12:56:51.127Z,57.15
2023-03-12T12:59:28.036Z,56.37
2023-03-12T13:01:56.293Z,56.35
2023-03-12T13:04:33.047Z,56.51
2023-03-12T13:07:12.316Z,56.66
2023-03-12T13:09:41.740Z,56.55
2023-03-12T13:12:19.437Z,56.68
2023-03-12T13:14:48.754Z,56.37
2023-03-12T13:17:36.429Z,56.68
2023-03-12T13:20:11.144Z,56.69
2023-03-12T13:23:01.392Z,56.40
2023-03-12T13:25:40.012Z,56.39
2023-03-12T13:28:32.618Z,56.72
2023-03-12T13:31:24.318Z,56.80
2023-03-12T13:33:53.616Z,55.81
2023-03-12T13:36:29.140Z,54.91
2023-03-12T13:39:08.076Z,55.13
2023-03-12T13:41:41.132Z,55.50
2023-03-12T13:44:28.065Z,55.58
2023-03-12T13:46:59.792Z,55.75
2023-03-12T13:50:14.216Z,55.79
2023-03-12T13:52:51.870Z,55.34
2023-03-12T13:55:25.269Z,55.51
2023-03-12T13:58:02.138Z,55.74
2023-03-12T14:00:38.499Z,55.92
2023-03-12T14:03:12.565Z,55.34
2023-03-12T14:06:04.535Z,55.95
2023-03-12T14:08:49.135Z,56.27
2023-03-12T14:11:21.222Z,56.56
2023-03-12T14:14:15.449Z,56.45
2023-03-12T14:16:46.258Z,56.18
2023-03-12T14:19:14.623Z,55.52
2023-03-12T14:21:46.547Z,55.91
2023-03-12T14:24:19.428Z,55.82
2023-03-12T14:26:47.421Z,56.02
2023-03-12T14:29:38.158Z,56.17
2023-03-12T14:32:11.469Z,55.98
2023-03-12T14:34:45.486Z,55.87
2023-03-12T14:37:19.035Z,55.54
2023-03-12T14:39:55.683Z,55.06
2023-03-12T14:43:14.454Z,55.25
2023-03-12T14:45:44.632Z,55.43
2023-03-12T14:48:13.011Z,55.95
2023-03-12T14:50:41.602Z,56.43
2023-03-12T14:53:24.726Z,55.93
2023-03-12T14:56:25.866Z,56.40
2023-03-12T14:58:54.141Z,56.38
2023-03-12T15:01:33.350Z,56.54
2023-03-12T15:04:03.914Z,56.48
2023-03-12T15:06:36.656Z,56.05
2023-03-12T15:09:06.993Z,56.40
2023-03-12T15:11:38.784Z,56.42
2023-03-12T15:14:08.302Z,56.45
2023-03-12T15:16:38.418Z,57.08
2023-03-12T15:19:06.494Z,57.37
2023-03-12T15:21:35.036Z,57.24
2023-03-12T15:24:04.036Z,57.32
2023-03-12T15:26:35.674Z,57.60
2023-03-12T15:29:16.517Z,57.18
2023-03-12T15:31:48.934Z,57.13
2023-03-12T15:34:34.343Z,57.07
2023-03-12T15:37:23.889Z,57.07
2023-03-12T15:39:52.292Z,57.18
2023-03-12T15:42:23.693Z,57.41
2023-03-12T15:44:56.989Z,57.57
2023-03-12T15:47:29.031Z,57.87
2023-03-12T15:50:11.296Z,57.90
2023-03-12T15:52:39.454Z,58.19
2023-03-12T15:55:22.689Z,58.00
2023-03-12T15:57:52.167Z,57.77
2023-03-12T16:00:28.336Z,57.82
2023-03-12T16:03:01.014Z,57.28
2023-03-12T16:05:35.617Z,56.71
2023-03-12T16:08:23.551Z,56.48
2023-03-12T16:10:51.741Z,56.83
2023-03-12T16:13:20.924Z,56.54
2023-03-12T16:15:52.412Z,56.82
2023-03-12T16:18:22.033Z,57.21
2023-03-12T16:20:51.403Z,57.40
2023-03-12T16:23:21.640Z,57.57
2023-03-12T16:25:51.764Z,57.72
2023-03-12T16:28:20.354Z,57.66
2023-03-12T16:30:50.054Z,57.83
2023-03-12T16:33:19.873Z,57.85
2023-03-12T16:35:48.166Z,58.26
2023-03-12T16:38:16.629Z,57.96
2023-03-12T16:40:49.071Z,57.58
2023-03-12T16:52:39.757Z,59.25
2023-03-12T16:55:08.237Z,60.00
2023-03-12T16:57:37.620Z,60.56
2023-03-12T17:00:08.600Z,60.73
2023-03-12T17:02:36.914Z,61.37
2023-03-12T17:05:05.137Z,61.65
2023-03-12T17:07:33.328Z,62.20
2023-03-12T17:10:02.011Z,62.20
2023-03-12T17:12:36.414Z,62.42
2023-03-12T17:15:08.378Z,62.87
2023-03-12T17:17:37.599Z,63.18
2023-03-12T17:20:10.059Z,63.32
2023-03-12T17:22:38.285Z,63.45
2023-03-12T17:25:30.248Z,63.65
2023-03-12T17:27:59.670Z,63.69
2023-03-12T17:30:30.106Z,63.46
2023-03-12T17:33:02.918Z,63.31
2023-03-12T17:35:31.179Z,63.54
2023-03-12T17:37:59.571Z,63.53
2023-03-12T17:40:28.201Z,63.86
2023-03-12T17:43:02.572Z,63.83
2023-03-12T17:45:30.700Z,64.19
2023-03-12T17:47:58.764Z,64.38
2023-03-12T17:50:26.872Z,64.52
2023-03-12T17:52:55.119Z,64.55
2023-03-12T17:55:23.164Z,64.35
2023-03-12T17:57:51.358Z,64.34
2023-03-12T18:00:23.105Z,64.27
2023-03-12T18:02:53.055Z,64.08
2023-03-12T18:05:21.438Z,63.92
2023-03-12T18:07:52.291Z,63.65
2023-03-12T18:10:20.547Z,63.60
2023-03-12T18:12:50.919Z,63.22
2023-03-12T18:15:19.813Z,63.05
2023-03-12T18:17:51.960Z,62.87
2023-03-12T18:20:37.463Z,62.70
2023-03-12T18:23:06.856Z,62.44
2023-03-12T18:25:34.838Z,62.13
2023-03-12T18:28:03.301Z,62.06
2023-03-12T18:30:31.620Z,61.85
2023-03-12T18:33:03.066Z,61.82
2023-03-12T18:35:31.690Z,61.65
2023-03-12T18:37:59.786Z,61.67
2023-03-12T18:40:29.138Z,61.46
2023-03-12T18:42:58.024Z,61.39
2023-03-12T18:45:27.112Z,61.38
2023-03-12T18:47:55.996Z,60.95
2023-03-12T18:50:25.022Z,60.64
2023-03-12T18:52:53.531Z,60.39
2023-03-12T18:55:21.538Z,60.55
2023-03-12T18:57:50.355Z,60.87
2023-03-12T19:00:19.250Z,61.22
2023-03-12T19:02:48.030Z,61.42
2023-03-12T19:05:16.660Z,61.65
2023-03-12T19:07:44.755Z,61.92
2023-03-12T19:10:13.027Z,61.73
2023-03-12T19:12:52.152Z,61.26
2023-03-12T19:15:22.170Z,60.48
2023-03-12T19:17:51.290Z,59.81
2023-03-12T19:20:19.855Z,58.89
2023-03-12T19:22:50.029Z,58.74
2023-03-12T19:25:18.781Z,58.73
2023-03-12T19:27:50.298Z,58.72
2023-03-12T19:30:19.026Z,59.03
2023-03-12T19:32:47.135Z,59.18
2023-03-12T19:35:15.341Z,58.75
2023-03-12T19:37:44.564Z,59.25
2023-03-12T19:40:13.429Z,59.45
2023-03-12T19:42:42.608Z,59.82
2023-03-12T19:45:11.232Z,59.68
2023-03-12T19:47:41.044Z,59.50
2023-03-12T19:50:10.146Z,59.57
2023-03-12T19:52:38.810Z,59.55
2023-03-12T19:55:09.763Z,59.79
2023-03-12T19:57:37.978Z,59.48
2023-03-12T20:00:09.932Z,59.69
2023-03-12T20:02:38.871Z,59.93
2023-03-12T20:05:07.490Z,59.89
2023-03-12T20:07:36.045Z,59.87
2023-03-12T20:10:10.015Z,59.48
2023-03-12T20:12:39.453Z,59.77
2023-03-12T20:15:08.849Z,59.67
2023-03-12T20:17:38.012Z,59.62
2023-03-12T20:20:08.079Z,59.78
2023-03-12T20:22:36.672Z,59.90
2023-03-12T20:25:06.824Z,59.86
2023-03-12T20:27:35.790Z,59.96
2023-03-12T20:30:04.668Z,59.93
2023-03-12T20:32:33.456Z,59.97
2023-03-12T20:35:01.547Z,59.89
2023-03-12T20:37:31.168Z,59.98
2023-03-12T20:39:59.523Z,59.98
2023-03-12T20:42:27.823Z,59.55
2023-03-12T20:44:57.062Z,59.46
2023-03-12T20:47:25.267Z,59.63
2023-03-12T20:49:53.469Z,59.85
2023-03-12T20:52:21.719Z,59.74
2023-03-12T20:54:51.169Z,59.70
2023-03-12T20:57:19.141Z,59.44
2023-03-12T20:59:47.249Z,59.91
2023-03-12T21:02:15.496Z,59.76
2023-03-12T21:04:43.903Z,59.07
2023-03-12T21:07:12.304Z,59.20
2023-03-12T21:09:43.194Z,59.25
2023-03-12T21:12:11.382Z,59.33
2023-03-12T21:14:41.666Z,58.96
2023-03-12T21:17:13.817Z,59.03
2023-03-12T21:19:46.511Z,58.91
2023-03-12T21:22:15.040Z,58.98
2023-03-12T21:24:42.997Z,58.36
2023-03-12T21:27:13.100Z,58.66
2023-03-12T21:29:42.726Z,58.50
2023-03-12T21:32:10.753Z,58.86
2023-03-12T21:34:39.115Z,58.63
2023-03-12T21:37:07.165Z,58.89
2023-03-12T21:39:36.258Z,58.85
2023-03-12T21:42:04.587Z,59.03
2023-03-12T21:44:36.516Z,59.06
2023-03-12T21:47:05.213Z,58.89
2023-03-12T21:49:34.797Z,59.08
2023-03-12T21:52:03.593Z,59.27
2023-03-12T21:54:35.159Z,59.29
2023-03-12T21:57:03.831Z,59.35
2023-03-12T21:59:33.050Z,59.29
2023-03-12T22:02:01.456Z,59.36
2023-03-12T22:04:29.837Z,59.07
2023-03-12T22:06:58.166Z,59.31
2023-03-12T22:09:27.111Z,59.26
2023-03-12T22:11:55.740Z,59.58
2023-03-12T22:14:24.161Z,59.34
2023-03-12T22:16:54.786Z,59.12
2023-03-12T22:19:24.056Z,59.31
2023-03-12T22:21:52.158Z,59.12
2023-03-12T22:24:22.036Z,59.05
2023-03-12T22:26:50.032Z,59.50
2023-03-12T22:29:18.008Z,59.38
2023-03-12T22:31:46.154Z,59.34
2023-03-12T22:34:14.950Z,59.03
2023-03-12T22:36:43.593Z,58.50
2023-03-12T22:39:11.815Z,58.36
2023-03-12T22:41:41.233Z,58.19
2023-03-12T22:44:09.514Z,58.07
2023-03-12T22:46:43.095Z,57.69
2023-03-12T22:49:11.306Z,57.81
2023-03-12T22:51:39.393Z,57.49
2023-03-12T22:54:07.429Z,57.64
2023-03-12T22:56:35.997Z,56.73
2023-03-12T22:59:04.916Z,56.59
2023-03-12T23:01:33.773Z,56.95
2023-03-12T23:04:06.462Z,57.26
2023-03-12T23:06:34.654Z,57.76
2023-03-12T23:09:03.181Z,58.10
2023-03-12T23:11:36.023Z,58.06
2023-03-12T23:14:04.321Z,58.15
2023-03-12T23:16:32.495Z,58.38
2023-03-12T23:19:00.900Z,58.25
2023-03-12T23:21:29.995Z,58.31
2023-03-12T23:24:02.335Z,58.00
2023-03-12T23:26:30.485Z,57.88
2023-03-12T23:28:59.281Z,57.87
2023-03-12T23:31:29.174Z,58.18
2023-03-12T23:33:59.242Z,58.22
2023-03-12T23:36:32.021Z,58.77
2023-03-12T23:39:00.452Z,59.08
2023-03-12T23:41:31.844Z,59.15
2023-03-12T23:44:01.600Z,58.68
2023-03-12T23:46:30.390Z,58.35
2023-03-12T23:48:59.972Z,58.46
2023-03-12T23:51:31.356Z,58.53
2023-03-12T23:54:03.821Z,58.53
2023-03-12T23:56:38.116Z,58.61
2023-03-12T23:59:07.145Z,58.36
